Time;durP1;ratioP1;P1;durP2;ratioP2;P2;SDS_P1;SDS_P2;PMS_P1;PMS_P2;Temp;Humidity;BMP_temperature;BMP_pressure;BME280_temperature;BME280_humidity;BME280_pressure;Samples;Min_cycle;Max_cycle;Signal;HPM_P1;HPM_P2
2023/06/07 00:00:38;;;;;;;1999.90;999.90;;;25.40;95.60;;;;;;5050703;28;20368;-72
2023/06/07 00:03:09;;;;;;;1999.90;999.90;;;25.20;95.70;;;;;;5054234;28;20391;-71
2023/06/07 00:05:39;;;;;;;1999.90;999.90;;;24.70;95.90;;;;;;5050832;28;20028;-72
2023/06/07 00:08:07;;;;;;;1999.90;999.90;;;24.80;95.70;;;;;;5053203;28;20548;-73
2023/06/07 00:10:34;;;;;;;1999.90;999.90;;;24.70;96.40;;;;;;5056590;28;20020;-76
2023/06/07 00:13:02;;;;;;;1999.90;999.90;;;24.90;96.40;;;;;;5052586;28;20020;-68
2023/06/07 00:15:29;;;;;;;1999.90;999.90;;;25.20;95.80;;;;;;5055068;28;20055;-70
2023/06/07 00:17:59;;;;;;;1999.90;999.90;;;25.40;95.90;;;;;;5054041;28;20033;-69
2023/06/07 00:20:28;;;;;;;1999.90;999.90;;;25.80;95.70;;;;;;5055520;28;20403;-69
2023/06/07 00:22:55;;;;;;;1999.90;999.90;;;26.20;94.50;;;;;;5049657;28;20498;-72
2023/06/07 00:25:26;;;;;;;1999.90;999.90;;;26.20;94.20;;;;;;5056364;28;20448;-70
2023/06/07 00:27:53;;;;;;;1999.90;999.90;;;26.10;94.60;;;;;;5049414;28;20037;-71
2023/06/07 00:30:20;;;;;;;1999.90;999.90;;;26.10;94.60;;;;;;5059899;28;20083;-71
2023/06/07 00:32:48;;;;;;;1999.90;999.90;;;26.40;94.90;;;;;;5051701;28;20116;-73
2023/06/07 00:35:15;;;;;;;1999.90;999.90;;;26.70;94.40;;;;;;5056814;28;20042;-71
2023/06/07 00:37:42;;;;;;;1999.90;999.90;;;26.80;94.10;;;;;;5055160;28;20513;-71
2023/06/07 00:40:10;;;;;;;1999.90;999.90;;;26.60;94.20;;;;;;5052873;28;20108;-70
2023/06/07 00:42:39;;;;;;;1999.90;999.90;;;26.90;94.20;;;;;;5061365;28;20136;-71
2023/06/07 00:45:07;;;;;;;1999.90;999.90;;;27.30;94.40;;;;;;5051621;28;20033;-71
2023/06/07 00:47:36;;;;;;;1999.90;999.90;;;27.70;93.30;;;;;;5065255;28;20643;-72
2023/06/07 00:50:05;;;;;;;1999.90;999.90;;;27.80;93.30;;;;;;5048231;28;20021;-70
2023/06/07 00:52:34;;;;;;;1999.90;999.90;;;28.10;92.80;;;;;;5055401;28;20036;-69
2023/06/07 00:55:05;;;;;;;1999.90;999.90;;;28.00;92.70;;;;;;5060686;28;20027;-70
2023/06/07 00:57:33;;;;;;;1999.90;999.90;;;28.10;92.30;;;;;;5052657;28;20021;-67
2023/06/07 01:00:04;;;;;;;1999.90;999.90;;;28.00;92.20;;;;;;5056693;28;20057;-70
2023/06/07 01:02:31;;;;;;;1999.90;999.90;;;28.10;92.30;;;;;;5060281;28;20037;-72
2023/06/07 01:05:02;;;;;;;1999.90;999.90;;;28.30;92.00;;;;;;5056294;28;20064;-70
2023/06/07 01:07:30;;;;;;;1999.90;999.90;;;28.30;91.60;;;;;;5053501;28;20574;-70
2023/06/07 01:09:57;;;;;;;1999.90;999.90;;;28.10;92.10;;;;;;5050003;28;20053;-70
2023/06/07 01:12:25;;;;;;;1999.90;999.90;;;28.10;92.00;;;;;;5049246;28;20013;-71
2023/06/07 01:14:54;;;;;;;1999.90;999.90;;;28.50;91.30;;;;;;5057001;28;20391;-70
2023/06/07 01:17:26;;;;;;;1999.90;999.90;;;28.40;91.90;;;;;;5057728;28;20033;-71
2023/06/07 01:19:55;;;;;;;1999.90;999.90;;;28.60;91.40;;;;;;5054622;28;20112;-71
2023/06/07 01:22:27;;;;;;;1999.90;999.90;;;28.60;91.80;;;;;;5056704;28;20036;-69
2023/06/07 01:25:00;;;;;;;1999.90;999.90;;;28.90;91.40;;;;;;5058925;28;20140;-68
2023/06/07 01:27:30;;;;;;;1999.90;999.90;;;29.10;91.00;;;;;;5054825;28;20037;-69
2023/06/07 01:29:59;;;;;;;1999.90;999.90;;;29.10;90.90;;;;;;5058331;28;20372;-71
2023/06/07 01:32:27;;;;;;;1999.90;999.90;;;29.10;90.70;;;;;;5060315;28;20028;-70
2023/06/07 01:34:55;;;;;;;1999.90;999.90;;;28.50;91.10;;;;;;5057576;28;20029;-72
2023/06/07 01:37:24;;;;;;;1999.90;999.90;;;28.40;91.70;;;;;;5049643;28;20048;-73
2023/06/07 01:39:53;;;;;;;1999.90;999.90;;;28.40;91.20;;;;;;5053445;28;20024;-69
2023/06/07 01:42:21;;;;;;;1999.90;999.90;;;28.30;91.60;;;;;;5053658;28;20410;-69
2023/06/07 01:44:49;;;;;;;1999.90;999.90;;;28.20;91.10;;;;;;5061691;28;20140;-69
2023/06/07 01:47:17;;;;;;;1999.90;999.90;;;28.00;92.00;;;;;;5052787;28;20060;-68
2023/06/07 01:49:45;;;;;;;1999.90;999.90;;;28.10;91.30;;;;;;5059261;28;20035;-70
2023/06/07 01:52:12;;;;;;;1999.90;999.90;;;28.20;91.40;;;;;;5054538;28;20175;-68
2023/06/07 01:54:40;;;;;;;1999.90;999.90;;;28.20;91.00;;;;;;5056330;28;20438;-69
2023/06/07 01:57:14;;;;;;;1999.90;999.90;;;28.30;91.10;;;;;;5054817;28;20119;-69
2023/06/07 01:59:56;;;;;;;1999.90;999.90;;;28.20;91.30;;;;;;5063731;28;20746;-69
2023/06/07 02:02:53;;;;;;;1999.90;999.90;;;28.00;91.30;;;;;;5046720;28;20128;-69
2023/06/07 02:05:44;;;;;;;1999.90;999.90;;;27.90;91.30;;;;;;5055234;28;20086;-68
2023/06/07 02:08:29;;;;;;;1999.90;999.90;;;27.40;91.30;;;;;;5058997;28;20443;-71
2023/06/07 02:10:58;;;;;;;1999.90;999.90;;;27.30;91.90;;;;;;5048870;28;20112;-72
2023/06/07 02:13:30;;;;;;;1999.90;999.90;;;27.40;91.80;;;;;;5059730;28;20037;-70
2023/06/07 02:15:57;;;;;;;1999.90;999.90;;;27.30;91.60;;;;;;5061037;28;20025;-74
2023/06/07 02:18:27;;;;;;;1999.90;999.90;;;27.40;91.60;;;;;;5058243;28;20025;-74
2023/06/07 02:20:55;;;;;;;1999.90;999.90;;;27.20;92.20;;;;;;5051783;28;20091;-70
2023/06/07 02:23:22;;;;;;;1999.90;999.90;;;27.30;92.10;;;;;;5053704;28;20072;-72
2023/06/07 02:25:50;;;;;;;1999.90;999.90;;;27.30;92.00;;;;;;5054346;28;20056;-71
2023/06/07 02:28:17;;;;;;;1999.90;999.90;;;26.80;92.10;;;;;;5055755;28;20083;-71
2023/06/07 02:30:45;;;;;;;1999.90;999.90;;;26.60;92.60;;;;;;5058973;28;20021;-72
2023/06/07 02:33:13;;;;;;;1999.90;999.90;;;26.40;92.80;;;;;;5053545;28;20024;-71
2023/06/07 02:35:44;;;;;;;1999.90;999.90;;;26.20;92.70;;;;;;5058988;28;20032;-70
2023/06/07 02:38:11;;;;;;;1999.90;999.90;;;25.90;93.10;;;;;;5061021;28;20039;-72
2023/06/07 02:40:39;;;;;;;1999.90;999.90;;;25.90;93.30;;;;;;5056739;28;20028;-72
2023/06/07 02:43:06;;;;;;;1999.90;999.90;;;25.70;93.70;;;;;;5060448;28;20033;-70
2023/06/07 02:45:33;;;;;;;1999.90;999.90;;;25.70;93.70;;;;;;5061285;28;20032;-70
2023/06/07 02:48:01;;;;;;;1999.90;999.90;;;25.70;93.50;;;;;;5055655;28;20036;-71
2023/06/07 02:50:28;;;;;;;1999.90;999.90;;;25.90;93.70;;;;;;5061459;28;20117;-71
2023/06/07 02:52:55;;;;;;;1999.90;999.90;;;25.90;93.40;;;;;;5056482;28;20053;-70
2023/06/07 02:55:23;;;;;;;1999.90;999.90;;;25.40;93.60;;;;;;5053233;28;20476;-71
2023/06/07 02:57:50;;;;;;;1999.90;999.90;;;25.10;94.30;;;;;;5055872;28;20044;-76
2023/06/07 03:00:18;;;;;;;1999.90;999.90;;;24.70;94.60;;;;;;5047612;28;20037;-71
2023/06/07 03:02:45;;;;;;;1999.90;999.90;;;24.60;94.60;;;;;;5054952;28;20092;-72
2023/06/07 03:05:12;;;;;;;1999.90;999.90;;;24.60;94.90;;;;;;5060705;28;20107;-71
2023/06/07 03:07:40;;;;;;;1999.90;999.90;;;24.50;95.10;;;;;;5055041;28;20297;-72
2023/06/07 03:10:08;;;;;;;1999.90;999.90;;;24.40;95.00;;;;;;5063155;28;20036;-71
2023/06/07 03:12:35;;;;;;;1999.90;999.90;;;24.30;95.40;;;;;;5061551;28;20041;-71
2023/06/07 03:15:03;;;;;;;1999.90;999.90;;;24.30;95.70;;;;;;5054216;28;20029;-71
2023/06/07 03:17:31;;;;;;;1999.90;999.90;;;24.30;95.60;;;;;;5052695;28;20021;-68
2023/06/07 03:19:58;;;;;;;1999.90;999.90;;;24.10;95.80;;;;;;5061366;28;20032;-71
2023/06/07 03:22:25;;;;;;;1999.90;999.90;;;23.80;96.00;;;;;;5059565;28;20037;-71
2023/06/07 03:24:54;;;;;;;1999.90;999.90;;;23.80;96.20;;;;;;5063991;28;20028;-70
2023/06/07 03:27:23;;;;;;;1999.90;999.90;;;23.50;96.30;;;;;;5055363;28;20044;-71
2023/06/07 03:29:51;;;;;;;1999.90;999.90;;;23.40;96.70;;;;;;5057123;28;20029;-69
2023/06/07 03:32:18;;;;;;;1999.90;999.90;;;23.00;96.90;;;;;;5050298;28;20028;-70
2023/06/07 03:34:46;;;;;;;1999.90;999.90;;;22.60;97.40;;;;;;5059981;28;20020;-71
2023/06/07 03:37:13;;;;;;;1999.90;999.90;;;22.20;98.00;;;;;;5048672;28;20025;-72
2023/06/07 03:39:40;;;;;;;1999.90;999.90;;;22.00;98.20;;;;;;5056751;28;20586;-70
2023/06/07 03:42:08;;;;;;;1999.90;999.90;;;21.70;98.60;;;;;;5053500;28;20074;-71
2023/06/07 03:44:35;;;;;;;1999.90;999.90;;;21.60;99.30;;;;;;5058700;28;20613;-71
2023/06/07 03:47:02;;;;;;;1999.90;999.90;;;21.50;99.50;;;;;;5056679;28;20052;-75
2023/06/07 03:49:30;;;;;;;1999.90;999.90;;;21.40;99.80;;;;;;5061406;28;20021;-72
2023/06/07 03:51:57;;;;;;;1999.90;999.90;;;21.40;99.80;;;;;;5045557;28;20029;-68
2023/06/07 03:54:24;;;;;;;1999.90;999.90;;;21.30;99.90;;;;;;5056894;28;20032;-72
2023/06/07 03:56:52;;;;;;;1999.90;999.90;;;21.20;99.90;;;;;;5053300;28;20025;-71
2023/06/07 03:59:20;;;;;;;1999.90;999.90;;;21.10;99.90;;;;;;5056397;28;20459;-70
2023/06/07 04:01:51;;;;;;;1999.90;999.90;;;21.00;99.90;;;;;;5047957;28;20120;-71
2023/06/07 04:04:18;;;;;;;1999.90;999.90;;;20.90;99.90;;;;;;5059243;28;20033;-70
2023/06/07 04:06:46;;;;;;;1999.90;999.90;;;20.80;99.90;;;;;;5049395;28;20021;-70
2023/06/07 04:09:15;;;;;;;1999.90;999.90;;;20.80;99.90;;;;;;5055269;28;20029;-75
2023/06/07 04:11:42;;;;;;;1999.90;999.90;;;20.80;99.90;;;;;;5058863;28;20032;-70
2023/06/07 04:14:10;;;;;;;1999.90;999.90;;;20.80;99.90;;;;;;5061362;28;20100;-69
2023/06/07 04:16:37;;;;;;;1999.90;999.90;;;20.80;99.90;;;;;;5051283;28;22331;-70
2023/06/07 04:19:04;;;;;;;1999.90;999.90;;;20.70;99.90;;;;;;5050509;28;20056;-71
2023/06/07 04:21:32;;;;;;;1999.90;999.90;;;20.70;99.90;;;;;;5048235;28;20025;-69
2023/06/07 04:24:00;;;;;;;1999.90;999.90;;;20.60;99.90;;;;;;5052149;28;20085;-74
2023/06/07 04:26:30;;;;;;;1999.90;999.90;;;20.50;99.90;;;;;;5052105;28;20071;-66
2023/06/07 04:28:58;;;;;;;1999.90;999.90;;;20.60;99.90;;;;;;5058533;28;20040;-72
2023/06/07 04:31:34;;;;;;;1999.90;999.90;;;20.50;99.90;;;;;;5049286;28;20039;-70
2023/06/07 04:34:01;;;;;;;1999.90;999.90;;;20.50;99.90;;;;;;5060585;28;20037;-69
2023/06/07 04:36:29;;;;;;;1999.90;999.90;;;20.50;99.90;;;;;;5055070;28;20479;-69
2023/06/07 04:38:57;;;;;;;1999.90;999.90;;;20.50;99.90;;;;;;5057635;28;20387;-68
2023/06/07 04:41:32;;;;;;;1999.90;999.90;;;20.40;99.90;;;;;;5056139;28;20044;-69
2023/06/07 04:44:06;;;;;;;1999.90;999.90;;;20.30;99.90;;;;;;5059993;28;20095;-68
2023/06/07 04:46:34;;;;;;;1999.90;999.90;;;20.30;99.90;;;;;;5052909;28;20038;-71
2023/06/07 04:49:01;;;;;;;1999.90;999.90;;;20.20;99.90;;;;;;5056191;28;20021;-70
2023/06/07 04:51:30;;;;;;;1999.90;999.90;;;20.20;99.90;;;;;;5052558;28;20040;-74
2023/06/07 04:54:01;;;;;;;1999.90;999.90;;;20.30;99.90;;;;;;5062396;28;20464;-70
2023/06/07 04:56:31;;;;;;;1999.90;999.90;;;20.30;99.90;;;;;;5056736;28;20510;-70
2023/06/07 04:59:00;;;;;;;1999.90;999.90;;;20.30;99.90;;;;;;5059035;28;20052;-71
2023/06/07 05:01:28;;;;;;;1999.90;999.90;;;20.30;99.90;;;;;;5060635;28;20113;-71
2023/06/07 05:04:02;;;;;;;1999.90;999.90;;;20.30;99.90;;;;;;5049770;28;20025;-74
2023/06/07 05:06:36;;;;;;;1999.90;999.90;;;20.30;99.90;;;;;;5050235;28;20069;-74
2023/06/07 05:09:05;;;;;;;1999.90;999.90;;;20.20;99.90;;;;;;5055359;28;20094;-74
2023/06/07 05:11:33;;;;;;;1999.90;999.90;;;20.20;99.90;;;;;;5049143;28;20055;-71
2023/06/07 05:14:00;;;;;;;1999.90;999.90;;;20.20;99.90;;;;;;5055945;28;20026;-70
2023/06/07 05:16:27;;;;;;;1999.90;999.90;;;20.20;99.90;;;;;;5050542;28;20032;-70
2023/06/07 05:18:56;;;;;;;1999.90;999.90;;;20.10;99.90;;;;;;5061233;28;20032;-70
2023/06/07 05:21:23;;;;;;;1999.90;999.90;;;20.00;99.90;;;;;;5054924;28;20036;-73
2023/06/07 05:23:51;;;;;;;1999.90;999.90;;;20.10;99.90;;;;;;5075870;28;20029;-75
2023/06/07 05:26:18;;;;;;;1999.90;999.90;;;20.00;99.90;;;;;;5056273;28;20037;-72
2023/06/07 05:28:46;;;;;;;1999.90;999.90;;;20.00;99.90;;;;;;5059293;28;20028;-71
2023/06/07 05:31:14;;;;;;;1999.90;999.90;;;20.00;99.90;;;;;;5054632;28;20039;-71
2023/06/07 05:33:41;;;;;;;1999.90;999.90;;;20.00;99.90;;;;;;5064180;28;20029;-75
2023/06/07 05:36:10;;;;;;;1999.90;999.90;;;20.00;99.90;;;;;;5056528;28;20036;-73
2023/06/07 05:38:37;;;;;;;1999.90;999.90;;;20.00;99.90;;;;;;5059633;28;20387;-72
2023/06/07 05:41:05;;;;;;;1999.90;999.90;;;19.90;99.90;;;;;;5055524;28;20041;-73
2023/06/07 05:43:32;;;;;;;1999.90;999.90;;;19.90;99.90;;;;;;5059442;28;20077;-73
2023/06/07 05:46:00;;;;;;;1999.90;999.90;;;19.90;99.90;;;;;;5057717;28;20040;-70
2023/06/07 05:48:28;;;;;;;1999.90;999.90;;;19.90;99.90;;;;;;5055238;28;20037;-70
2023/06/07 05:50:57;;;;;;;1999.90;999.90;;;19.80;99.90;;;;;;5057602;28;20099;-70
2023/06/07 05:53:25;;;;;;;1999.90;999.90;;;19.80;99.90;;;;;;5057802;28;20043;-72
2023/06/07 05:55:53;;;;;;;1999.90;999.90;;;19.90;99.90;;;;;;5058298;28;20028;-71
2023/06/07 05:58:21;;;;;;;1999.90;999.90;;;19.90;99.90;;;;;;5053607;28;20414;-74
2023/06/07 06:00:49;;;;;;;1999.90;999.90;;;19.90;99.90;;;;;;5062036;28;20052;-72
2023/06/07 06:03:17;;;;;;;1999.90;999.90;;;19.90;99.90;;;;;;5055323;28;20482;-71
2023/06/07 06:05:45;;;;;;;1999.90;999.90;;;20.00;99.90;;;;;;5060989;28;20025;-71
2023/06/07 06:08:13;;;;;;;1999.90;999.90;;;20.00;99.90;;;;;;5059357;28;20037;-72
2023/06/07 06:10:40;;;;;;;1999.90;999.90;;;20.00;99.90;;;;;;5053419;28;20021;-71
2023/06/07 06:13:07;;;;;;;1999.90;999.90;;;20.10;99.90;;;;;;5062428;28;20032;-70
2023/06/07 06:15:35;;;;;;;1999.90;999.90;;;20.20;99.90;;;;;;5060479;28;20116;-73
2023/06/07 06:18:03;;;;;;;1999.90;999.90;;;20.20;99.90;;;;;;5058056;28;20140;-72
2023/06/07 06:20:33;;;;;;;1999.90;999.90;;;20.20;99.90;;;;;;5057124;28;20029;-70
2023/06/07 06:23:03;;;;;;;1999.90;999.90;;;20.20;99.90;;;;;;5054516;28;20653;-71
2023/06/07 06:25:31;;;;;;;1999.90;999.90;;;20.10;99.90;;;;;;5056282;28;20146;-71
2023/06/07 06:27:59;;;;;;;1999.90;999.90;;;19.90;99.90;;;;;;5054908;28;20105;-72
2023/06/07 06:30:27;;;;;;;1999.90;999.90;;;19.80;99.90;;;;;;5059780;28;20032;-73
2023/06/07 06:32:54;;;;;;;1999.90;999.90;;;19.50;99.90;;;;;;5057122;28;20056;-71
2023/06/07 06:35:22;;;;;;;1999.90;999.90;;;19.40;99.90;;;;;;5060701;28;20036;-73
2023/06/07 06:37:49;;;;;;;1999.90;999.90;;;19.20;99.90;;;;;;5054200;28;20025;-73
2023/06/07 06:40:20;;;;;;;1999.90;999.90;;;19.00;99.90;;;;;;5062491;28;20116;-72
2023/06/07 06:42:47;;;;;;;1999.90;999.90;;;18.90;99.90;;;;;;5059242;28;20041;-71
2023/06/07 06:45:15;;;;;;;1999.90;999.90;;;18.70;99.90;;;;;;5056454;28;20040;-72
2023/06/07 06:47:42;;;;;;;1999.90;999.90;;;18.60;99.90;;;;;;5057471;28;20040;-69
2023/06/07 06:50:11;;;;;;;1999.90;999.90;;;18.50;99.90;;;;;;5055166;28;20484;-70
2023/06/07 06:52:44;;;;;;;1999.90;999.90;;;18.40;99.90;;;;;;5060612;28;20044;-69
2023/06/07 06:55:12;;;;;;;1999.90;999.90;;;18.30;99.90;;;;;;5046974;28;20055;-70
2023/06/07 06:57:39;;;;;;;1999.90;999.90;;;18.20;99.90;;;;;;5051452;28;20606;-72
2023/06/07 07:00:11;;;;;;;1999.90;999.90;;;18.10;99.90;;;;;;5051056;28;20111;-72
2023/06/07 07:02:39;;;;;;;1999.90;999.90;;;17.90;99.90;;;;;;5058327;28;20110;-73
2023/06/07 07:05:07;;;;;;;1999.90;999.90;;;17.90;99.90;;;;;;5056641;28;20115;-70
2023/06/07 07:07:34;;;;;;;1999.90;999.90;;;17.80;99.90;;;;;;5053564;28;20032;-70
2023/06/07 07:10:02;;;;;;;1999.90;999.90;;;17.70;99.90;;;;;;5056796;28;20381;-69
2023/06/07 07:12:30;;;;;;;1999.90;999.90;;;17.70;99.90;;;;;;5053159;28;20445;-72
2023/06/07 07:14:57;;;;;;;1999.90;999.90;;;17.60;99.90;;;;;;5054110;28;20051;-71
2023/06/07 07:17:24;;;;;;;1999.90;999.90;;;17.50;99.90;;;;;;5051661;28;20074;-75
2023/06/07 07:19:53;;;;;;;1999.90;999.90;;;17.40;99.90;;;;;;5061647;28;20028;-71
2023/06/07 07:22:21;;;;;;;1999.90;999.90;;;17.30;99.90;;;;;;5053854;28;20441;-71
2023/06/07 07:24:48;;;;;;;1999.90;999.90;;;17.20;99.90;;;;;;5055764;28;20048;-70
2023/06/07 07:27:17;;;;;;;1999.90;999.90;;;17.20;99.90;;;;;;5058832;28;20040;-71
2023/06/07 07:29:44;;;;;;;1999.90;999.90;;;17.20;99.90;;;;;;5062867;28;20073;-71
2023/06/07 07:32:11;;;;;;;1999.90;999.90;;;17.20;99.90;;;;;;5061907;28;20388;-71
2023/06/07 07:34:39;;;;;;;1999.90;999.90;;;17.40;99.90;;;;;;5065495;28;20032;-72
2023/06/07 07:37:07;;;;;;;1999.90;999.90;;;17.30;99.90;;;;;;5050660;28;20482;-70
2023/06/07 07:39:34;;;;;;;1999.90;999.90;;;17.40;99.90;;;;;;5054529;28;20025;-71
2023/06/07 07:42:04;;;;;;;1999.90;999.90;;;17.40;99.90;;;;;;5049485;28;20127;-70
2023/06/07 07:44:32;;;;;;;1999.90;999.90;;;17.40;99.90;;;;;;5056069;28;20025;-71
2023/06/07 07:46:59;;;;;;;1999.90;999.90;;;17.40;99.90;;;;;;5049128;28;20025;-70
2023/06/07 07:49:27;;;;;;;1999.90;999.90;;;17.30;99.90;;;;;;5055827;28;20028;-70
2023/06/07 07:51:54;;;;;;;1999.90;999.90;;;17.30;99.90;;;;;;5054350;28;20460;-71
2023/06/07 07:54:22;;;;;;;1999.90;999.90;;;17.30;99.90;;;;;;5059167;28;20108;-70
2023/06/07 07:56:49;;;;;;;1999.90;999.90;;;17.30;99.90;;;;;;5055879;28;20146;-70
2023/06/07 07:59:16;;;;;;;1999.90;999.90;;;17.20;99.90;;;;;;5059075;28;20036;-70
2023/06/07 08:01:45;;;;;;;1999.90;999.90;;;17.20;99.90;;;;;;5058074;28;20040;-70
2023/06/07 08:04:12;;;;;;;1999.90;999.90;;;17.10;99.90;;;;;;5063303;28;20446;-71
2023/06/07 08:06:40;;;;;;;1999.90;999.90;;;17.10;99.90;;;;;;5055486;28;20122;-71
2023/06/07 08:09:07;;;;;;;1999.90;999.90;;;17.00;99.90;;;;;;5060707;28;20605;-72
2023/06/07 08:11:34;;;;;;;1999.90;999.90;;;16.90;99.90;;;;;;5053084;28;20038;-70
2023/06/07 08:14:01;;;;;;;1999.90;999.90;;;16.90;99.90;;;;;;5061868;28;20051;-70
2023/06/07 08:16:30;;;;;;;1999.90;999.90;;;16.90;99.90;;;;;;5055430;28;20057;-70
2023/06/07 08:19:00;;;;;;;1999.90;999.90;;;16.90;99.90;;;;;;5060670;28;20099;-71
2023/06/07 08:21:27;;;;;;;1999.90;999.90;;;16.80;99.90;;;;;;5057851;28;20032;-71
2023/06/07 08:23:57;;;;;;;1999.90;999.90;;;16.80;99.90;;;;;;5057184;28;20017;-71
2023/06/07 08:26:25;;;;;;;1999.90;999.90;;;16.70;99.90;;;;;;5054900;28;20025;-74
2023/06/07 08:28:52;;;;;;;1999.90;999.90;;;16.70;99.90;;;;;;5065698;28;20033;-71
2023/06/07 08:31:22;;;;;;;1999.90;999.90;;;16.60;99.90;;;;;;5062256;28;20029;-73
2023/06/07 08:33:49;;;;;;;1999.90;999.90;;;16.50;99.90;;;;;;5054081;28;20035;-70
2023/06/07 08:36:17;;;;;;;1999.90;999.90;;;16.50;99.90;;;;;;5054489;28;20033;-71
2023/06/07 08:38:45;;;;;;;1999.90;999.90;;;16.50;99.90;;;;;;5053497;28;20480;-71
2023/06/07 08:41:12;;;;;;;1999.90;999.90;;;16.50;99.90;;;;;;5059241;28;20044;-73
2023/06/07 08:43:41;;;;;;;1999.90;999.90;;;16.50;99.90;;;;;;5060874;28;20033;-71
2023/06/07 08:46:09;;;;;;;1999.90;999.90;;;16.50;99.90;;;;;;5058997;28;20033;-70
2023/06/07 08:48:39;;;;;;;1999.90;999.90;;;16.40;99.90;;;;;;5059334;28;20255;-71
2023/06/07 08:51:09;;;;;;;1999.90;999.90;;;16.30;99.90;;;;;;5051372;28;20028;-72
2023/06/07 08:53:52;;;;;;;1999.90;999.90;;;16.30;99.90;;;;;;5051248;28;20032;-72
2023/06/07 08:56:21;;;;;;;1999.90;999.90;;;16.30;99.90;;;;;;5056852;28;20021;-71
2023/06/07 08:58:49;;;;;;;1999.90;999.90;;;16.30;99.90;;;;;;5050527;28;20029;-73
2023/06/07 09:01:20;;;;;;;1999.90;999.90;;;16.20;99.90;;;;;;5055302;28;20052;-72
2023/06/07 09:03:54;;;;;;;1999.90;999.90;;;16.20;99.90;;;;;;5054639;28;20056;-72
2023/06/07 09:06:22;;;;;;;1999.90;999.90;;;16.10;99.90;;;;;;5051273;28;20479;-72
2023/06/07 09:08:50;;;;;;;1999.90;999.90;;;16.00;99.90;;;;;;5053447;28;20031;-72
2023/06/07 09:11:18;;;;;;;1999.90;999.90;;;15.90;99.90;;;;;;5053357;28;20025;-71
2023/06/07 09:13:45;;;;;;;1999.90;999.90;;;15.90;99.90;;;;;;5056060;28;20027;-71
2023/06/07 09:16:13;;;;;;;1999.90;999.90;;;15.80;99.90;;;;;;5052811;28;20196;-72
2023/06/07 09:18:53;;;;;;;1999.90;999.90;;;15.80;99.90;;;;;;5061622;28;20025;-72
2023/06/07 09:21:23;;;;;;;1999.90;999.90;;;15.80;99.90;;;;;;5059616;28;20475;-71
2023/06/07 09:23:55;;;;;;;1999.90;999.90;;;15.70;99.90;;;;;;5058493;28;20083;-71
2023/06/07 09:26:23;;;;;;;1999.90;999.90;;;15.80;99.90;;;;;;5051397;28;20025;-71
2023/06/07 09:28:51;;;;;;;1999.90;999.90;;;15.70;99.90;;;;;;5058356;28;20032;-72
2023/06/07 09:31:38;;;;;;;1999.90;999.90;;;15.70;99.90;;;;;;5052107;28;20554;-71
2023/06/07 09:34:26;;;;;;;1999.90;999.90;;;15.70;99.90;;;;;;5052722;28;20112;-71
2023/06/07 09:36:58;;;;;;;1999.90;999.90;;;15.70;99.90;;;;;;5050328;28;20033;-72
2023/06/07 09:39:30;;;;;;;1999.90;999.90;;;15.60;99.90;;;;;;5062615;28;20398;-73
2023/06/07 09:41:58;;;;;;;1999.90;999.90;;;15.60;99.90;;;;;;5057285;28;20036;-72
2023/06/07 09:44:30;;;;;;;1999.90;999.90;;;15.50;99.90;;;;;;5051708;28;20025;-73
2023/06/07 09:46:58;;;;;;;1999.90;999.90;;;15.40;99.90;;;;;;5055631;28;20048;-72
2023/06/07 09:49:34;;;;;;;1999.90;999.90;;;15.30;99.90;;;;;;5061963;28;20495;-71
2023/06/07 09:52:04;;;;;;;;;;;15.20;99.90;;;;;;5057815;28;20054;-73
2023/06/07 09:54:39;;;;;;;1999.90;999.90;;;15.10;99.90;;;;;;5058823;28;19979;-70
2023/06/07 09:57:08;;;;;;;1999.90;999.90;;;15.00;99.90;;;;;;5050145;28;20028;-71
2023/06/07 09:59:55;;;;;;;1999.90;999.90;;;14.90;99.90;;;;;;5050738;28;20100;-70
2023/06/07 10:02:27;;;;;;;1999.90;999.90;;;14.90;99.90;;;;;;5052737;28;20048;-71
2023/06/07 10:04:57;;;;;;;1999.90;999.90;;;14.80;99.90;;;;;;5054868;28;20068;-70
2023/06/07 10:07:26;;;;;;;1999.90;999.90;;;14.70;99.90;;;;;;5062659;28;20648;-70
2023/06/07 10:09:57;;;;;;;1999.90;999.90;;;14.70;99.90;;;;;;5057546;28;20073;-72
2023/06/07 10:12:31;;;;;;;1999.90;999.90;;;14.60;99.90;;;;;;5063123;28;20035;-73
2023/06/07 10:15:03;;;;;;;1999.90;999.90;;;14.60;99.90;;;;;;5068666;28;20551;-71
2023/06/07 10:17:53;;;;;;;1999.90;999.90;;;14.50;99.90;;;;;;5054435;28;20518;-73
2023/06/07 10:20:31;;;;;;;1999.90;999.90;;;14.50;99.90;;;;;;5055306;28;20024;-72
2023/06/07 10:23:06;;;;;;;1999.90;999.90;;;14.40;99.90;;;;;;5062965;28;20173;-74
2023/06/07 10:25:36;;;;;;;;;;;14.40;99.90;;;;;;5054576;28;20075;-72
2023/06/07 10:28:49;;;;;;;1999.90;999.90;;;14.30;99.90;;;;;;5060256;28;19964;-71
2023/06/07 10:31:17;;;;;;;1999.90;999.90;;;14.30;99.90;;;;;;5037009;28;20503;-71
2023/06/07 10:33:46;;;;;;;1999.90;999.90;;;14.20;99.90;;;;;;5063764;28;20036;-71
2023/06/07 10:36:15;;;;;;;1999.90;999.90;;;14.20;99.90;;;;;;5060768;28;20028;-72
2023/06/07 10:38:42;;;;;;;1999.90;999.90;;;14.10;99.90;;;;;;5054330;28;20025;-70
2023/06/07 10:41:10;;;;;;;1999.90;999.90;;;14.10;99.90;;;;;;5058283;28;20112;-72
2023/06/07 10:43:38;;;;;;;1999.90;999.90;;;14.00;99.90;;;;;;5055638;28;20138;-71
2023/06/07 10:46:25;;;;;;;1999.90;999.90;;;14.00;99.90;;;;;;5054263;28;20087;-71
2023/06/07 10:48:54;;;;;;;1999.90;999.90;;;13.90;99.90;;;;;;5056735;28;20021;-71
2023/06/07 10:51:58;;;;;;;1999.90;999.90;;;13.90;99.90;;;;;;5052729;28;20078;-71
2023/06/07 10:54:33;;;;;;;1999.90;999.90;;;13.80;99.90;;;;;;5030529;28;20075;-71
2023/06/07 10:57:02;;;;;;;1999.90;999.90;;;13.80;99.90;;;;;;5053555;28;20028;-72
2023/06/07 10:59:30;;;;;;;1999.90;999.90;;;13.70;99.90;;;;;;5060114;28;20048;-72
2023/06/07 11:02:22;;;;;;;1999.90;999.90;;;13.70;99.90;;;;;;5055234;28;20487;-71
2023/06/07 11:04:54;;;;;;;1999.90;999.90;;;13.60;99.90;;;;;;5056956;28;20569;-72
2023/06/07 11:07:33;;;;;;;1999.90;999.90;;;13.60;99.90;;;;;;5061283;28;20052;-72
2023/06/07 11:10:03;;;;;;;1999.90;999.90;;;13.50;99.90;;;;;;5059047;28;20460;-71
2023/06/07 11:12:40;;;;;;;1999.90;999.90;;;13.50;99.90;;;;;;5057673;28;20068;-71
2023/06/07 11:15:21;;;;;;;1999.90;999.90;;;13.50;99.90;;;;;;5058821;28;20588;-71
2023/06/07 11:17:59;;;;;;;1999.90;999.90;;;13.50;99.90;;;;;;5057254;28;20123;-71
2023/06/07 11:20:38;;;;;;;1999.90;999.90;;;13.50;99.90;;;;;;5059345;28;20124;-71
2023/06/07 11:23:33;;;;;;;1999.90;999.90;;;13.40;99.90;;;;;;5061025;28;20087;-71
2023/06/07 11:26:10;;;;;;;1999.90;999.90;;;13.40;99.90;;;;;;5059145;28;20021;-70
2023/06/07 11:28:40;;;;;;;1999.90;999.90;;;13.30;99.90;;;;;;5056839;28;20525;-71
2023/06/07 11:31:12;;;;;;;1999.90;999.90;;;13.30;99.90;;;;;;5057802;28;20472;-70
2023/06/07 11:33:43;;;;;;;1999.90;999.90;;;13.20;99.90;;;;;;5060099;28;20507;-70
2023/06/07 11:36:10;;;;;;;1999.90;999.90;;;13.20;99.90;;;;;;5057816;28;20491;-71
2023/06/07 11:38:39;;;;;;;1999.90;999.90;;;13.20;99.90;;;;;;5061809;28;20040;-72
2023/06/07 11:41:07;;;;;;;1999.90;999.90;;;13.20;99.90;;;;;;5058948;28;20032;-71
2023/06/07 11:43:34;;;;;;;1999.90;999.90;;;13.20;99.90;;;;;;5054567;28;20029;-71
2023/06/07 11:46:01;;;;;;;1999.90;999.90;;;13.20;99.90;;;;;;5054009;28;20042;-69
2023/06/07 11:48:29;;;;;;;1999.90;999.90;;;13.10;99.90;;;;;;5054900;28;20040;-70
2023/06/07 11:50:57;;;;;;;1999.90;999.90;;;13.10;99.90;;;;;;5061642;28;20033;-69
2023/06/07 11:53:28;;;;;;;1999.90;999.90;;;13.00;99.90;;;;;;5056543;28;20033;-70
2023/06/07 11:55:56;;;;;;;1999.90;999.90;;;13.00;99.90;;;;;;5052530;28;20033;-71
2023/06/07 11:58:24;;;;;;;1999.90;999.90;;;12.90;99.90;;;;;;5059958;28;20108;-72
2023/06/07 12:00:52;;;;;;;1999.90;999.90;;;12.90;99.90;;;;;;5061264;28;20089;-72
2023/06/07 12:03:23;;;;;;;1999.90;999.90;;;12.80;99.90;;;;;;5050762;28;20033;-71
2023/06/07 12:05:51;;;;;;;1999.90;999.90;;;12.80;99.90;;;;;;5061428;28;20029;-71
2023/06/07 12:08:19;;;;;;;1999.90;999.90;;;12.80;99.90;;;;;;5054159;28;20049;-71
2023/06/07 12:10:56;;;;;;;1999.90;999.90;;;12.70;99.90;;;;;;5059138;28;20398;-71
2023/06/07 12:13:24;;;;;;;1999.90;999.90;;;12.70;99.90;;;;;;5051013;28;20032;-71